Time;durP1;ratioP1;P1;durP2;ratioP2;P2;SDS_P1;SDS_P2;PMS_P1;PMS_P2;Temp;Humidity;BMP_temperature;BMP_pressure;BME280_temperature;BME280_humidity;BME280_pressure;Samples;Min_cycle;Max_cycle;Signal;HPM_P1;HPM_P2
2022/06/27 00:00:42;;;;;;;6.30;2.13;;;;;;;20.81;79.09;99826.03;5050530;28;20052;-84
2022/06/27 00:03:07;;;;;;;3.85;3.13;;;;;;;20.78;78.72;99828.88;5050536;28;20033;-85
2022/06/27 00:05:33;;;;;;;4.00;2.58;;;;;;;20.68;79.15;99839.22;5052678;28;20036;-84
2022/06/27 00:07:58;;;;;;;3.15;2.00;;;;;;;20.26;80.35;99813.75;5051207;28;20493;-84
2022/06/27 00:10:24;;;;;;;4.30;2.70;;;;;;;20.26;80.95;99824.47;5051865;28;20021;-84
2022/06/27 00:12:50;;;;;;;4.10;2.42;;;;;;;20.31;81.97;99836.69;5051278;28;20495;-85
2022/06/27 00:15:15;;;;;;;4.70;2.78;;;;;;;20.30;81.83;99832.28;5051563;28;20033;-84
2022/06/27 00:17:41;;;;;;;2.58;1.90;;;;;;;20.19;81.47;99808.72;5050997;28;20112;-84
2022/06/27 00:20:07;;;;;;;2.55;1.70;;;;;;;20.44;80.91;99822.63;5036509;28;20483;-84
2022/06/27 00:22:32;;;;;;;9.23;2.85;;;;;;;20.34;80.07;99796.34;5047586;28;20083;-84
2022/06/27 00:24:59;;;;;;;5.05;3.42;;;;;;;20.45;79.51;99801.13;5051650;28;20396;-85
2022/06/27 00:27:24;;;;;;;4.78;2.65;;;;;;;20.63;78.90;99822.50;5040483;28;20116;-84
2022/06/27 00:29:50;;;;;;;4.88;2.95;;;;;;;20.53;79.33;99819.47;5045287;28;20116;-84
2022/06/27 00:32:16;;;;;;;3.13;1.70;;;;;;;20.48;79.90;99825.06;5033909;28;20094;-85
2022/06/27 00:34:42;;;;;;;4.28;2.75;;;;;;;20.48;80.29;99830.44;5036796;28;20033;-84
2022/06/27 00:37:08;;;;;;;4.55;2.88;;;;;;;20.47;79.75;99820.66;5051976;28;20036;-84
2022/06/27 00:39:33;;;;;;;3.45;1.88;;;;;;;20.49;79.41;99826.78;5050538;28;20059;-84
2022/06/27 00:41:59;;;;;;;2.85;1.77;;;;;;;20.48;79.20;99808.09;5051564;28;20095;-84
2022/06/27 00:44:36;;;;;;;3.90;2.13;;;;;;;20.44;79.52;99818.13;5039368;28;20159;-84
2022/06/27 00:47:03;;;;;;;7.22;2.67;;;;;;;20.39;79.31;99810.34;5031662;28;20040;-84
2022/06/27 00:49:29;;;;;;;5.22;3.08;;;;;;;20.28;80.70;99836.84;5035225;28;20396;-84
2022/06/27 00:51:54;;;;;;;4.40;2.42;;;;;;;20.05;81.77;99824.66;5051289;28;20059;-85
2022/06/27 00:54:22;;;;;;;5.13;2.67;;;;;;;20.02;82.21;99833.72;5049395;28;20048;-84
2022/06/27 00:56:48;;;;;;;4.70;2.70;;;;;;;20.14;82.12;99836.69;5051428;28;20415;-83
2022/06/27 00:59:13;;;;;;;3.25;2.15;;;;;;;19.97;81.57;99787.59;5051488;28;20063;-85
2022/06/27 01:01:40;;;;;;;6.50;3.72;;;;;;;20.13;80.48;99795.66;5051212;28;20033;-84
2022/06/27 01:04:06;;;;;;;3.15;2.60;;;;;;;20.01;82.30;99815.91;5046466;28;20025;-84
2022/06/27 01:06:32;;;;;;;4.40;2.22;;;;;;;20.11;82.06;99810.06;5051395;28;20047;-83
2022/06/27 01:08:58;;;;;;;3.50;1.92;;;;;;;20.30;81.31;99823.38;5049323;28;20410;-84
2022/06/27 01:11:23;;;;;;;4.82;2.60;;;;;;;20.25;81.03;99820.06;5051169;28;20036;-85
2022/06/27 01:13:49;;;;;;;4.40;2.97;;;;;;;20.20;81.51;99812.28;5050647;28;20476;-85
2022/06/27 01:16:15;;;;;;;3.97;2.45;;;;;;;20.31;81.57;99844.72;5050852;28;20085;-85
2022/06/27 01:18:41;;;;;;;6.43;4.63;;;;;;;20.38;81.50;99834.53;5050621;28;20029;-85
2022/06/27 01:21:08;;;;;;;6.93;2.95;;;;;;;20.52;80.74;99841.84;5050391;28;20171;-85
2022/06/27 01:23:37;;;;;;;4.22;2.67;;;;;;;20.43;80.58;99837.81;5049527;28;20037;-85
2022/06/27 01:26:03;;;;;;;5.10;3.42;;;;;;;20.35;80.46;99819.50;5034973;28;20029;-85
2022/06/27 01:28:29;;;;;;;4.05;2.75;;;;;;;20.41;80.04;99823.66;5030697;28;20045;-85
2022/06/27 01:30:55;;;;;;;5.13;3.25;;;;;;;20.34;79.25;99803.50;5031496;28;20116;-86
2022/06/27 01:33:21;;;;;;;3.95;2.60;;;;;;;20.35;79.93;99821.31;5036645;28;20104;-85
2022/06/27 01:35:46;;;;;;;4.03;2.58;;;;;;;20.07;80.24;99803.19;5049700;28;20040;-85
2022/06/27 01:38:12;;;;;;;6.90;2.55;;;;;;;20.33;80.49;99852.69;5050854;28;20426;-84
2022/06/27 01:40:39;;;;;;;5.03;2.78;;;;;;;20.36;79.26;99839.97;5048863;28;20043;-85
2022/06/27 01:43:05;;;;;;;4.03;2.65;;;;;;;20.26;79.31;99843.22;5050947;28;20376;-85
2022/06/27 01:45:32;;;;;;;6.38;3.88;;;;;;;20.17;79.75;99833.84;5050865;28;20071;-85
2022/06/27 01:47:58;;;;;;;4.75;2.53;;;;;;;20.35;79.26;99846.28;5050770;28;20560;-84
2022/06/27 01:50:24;;;;;;;6.72;2.47;;;;;;;20.20;78.88;99821.19;5050175;28;20032;-84
2022/06/27 01:52:51;;;;;;;9.13;3.10;;;;;;;20.07;79.43;99817.41;5050652;28;20045;-85
2022/06/27 01:55:18;;;;;;;4.82;3.00;;;;;;;20.24;79.27;99843.31;5046324;28;20035;-85
2022/06/27 01:57:46;;;;;;;5.32;2.97;;;;;;;20.08;79.76;99828.97;5030883;28;20040;-85
2022/06/27 02:00:14;;;;;;;4.80;2.60;;;;;;;20.11;79.66;99820.78;5036443;28;20021;-85
2022/06/27 02:02:41;;;;;;;5.28;3.03;;;;;;;20.08;80.49;99829.88;5050778;28;20033;-85
2022/06/27 02:05:07;;;;;;;6.72;2.50;;;;;;;20.20;79.86;99826.53;5050408;28;20497;-85
2022/06/27 02:07:33;;;;;;;6.28;3.25;;;;;;;20.10;80.09;99816.41;5050153;28;20041;-85
2022/06/27 02:09:58;;;;;;;3.70;2.88;;;;;;;20.10;80.71;99832.47;5049699;28;20502;-85
2022/06/27 02:12:26;;;;;;;4.20;2.50;;;;;;;20.11;80.20;99818.09;5050172;28;20457;-85
2022/06/27 02:14:53;;;;;;;5.38;2.97;;;;;;;20.12;79.87;99823.38;5050573;28;20029;-85
2022/06/27 02:17:19;;;;;;;5.20;3.50;;;;;;;19.98;80.21;99808.03;5050424;28;20036;-86
2022/06/27 02:19:45;;;;;;;3.63;2.55;;;;;;;19.92;81.28;99804.81;5050172;28;20506;-86
2022/06/27 02:22:12;;;;;;;7.78;3.95;;;;;;;20.11;80.88;99813.63;5050010;28;20029;-85
2022/06/27 02:24:37;;;;;;;4.97;2.97;;;;;;;19.77;83.30;99823.41;5030594;28;20044;-85
2022/06/27 02:27:03;;;;;;;5.18;2.95;;;;;;;19.75;84.22;99832.44;5047560;28;20037;-86
2022/06/27 02:29:29;;;;;;;4.25;2.67;;;;;;;19.89;83.75;99829.06;5050161;28;20122;-84
2022/06/27 02:31:55;;;;;;;6.07;3.75;;;;;;;20.03;82.58;99822.06;5050399;28;20064;-85
2022/06/27 02:34:20;;;;;;;7.43;4.25;;;;;;;20.12;83.03;99847.47;5050218;28;20501;-85
2022/06/27 02:36:48;;;;;;;5.93;4.43;;;;;;;20.13;82.88;99848.38;5050367;28;20029;-86
2022/06/27 02:39:18;;;;;;;6.43;4.22;;;;;;;20.11;82.72;99843.09;5049796;28;20086;-84
2022/06/27 02:41:45;;;;;;;4.38;3.00;;;;;;;19.99;82.95;99839.22;5035996;28;20041;-85
2022/06/27 02:44:13;;;;;;;4.22;2.53;;;;;;;20.11;82.29;99839.53;5031118;28;20033;-84
2022/06/27 02:46:40;;;;;;;3.85;2.78;;;;;;;20.12;82.58;99862.69;5033695;28;20076;-84
2022/06/27 02:49:06;;;;;;;5.80;3.75;;;;;;;19.97;82.14;99840.25;5033227;28;20037;-84
2022/06/27 02:51:42;;;;;;;5.57;3.78;;;;;;;20.08;81.31;99856.66;5040602;28;20041;-84
2022/06/27 02:54:11;;;;;;;6.30;3.92;;;;;;;19.94;80.84;99854.69;5032821;28;20060;-84
2022/06/27 02:56:49;;;;;;;6.07;3.17;;;;;;;19.99;80.92;99859.78;5038538;28;20068;-85
2022/06/27 02:59:21;;;;;;;6.47;2.60;;;;;;;19.97;80.97;99881.28;5033853;28;20029;-84
2022/06/27 03:01:49;;;;;;;5.35;3.88;;;;;;;20.03;80.46;99866.69;5045271;28;20065;-84
2022/06/27 03:04:14;;;;;;;7.00;2.55;;;;;;;19.93;81.08;99855.63;5050684;28;20036;-86
2022/06/27 03:06:40;;;;;;;5.38;3.13;;;;;;;19.80;81.34;99852.72;5039892;28;20033;-90
2022/06/27 03:09:05;;;;;;;5.60;2.92;;;;;;;19.87;81.01;99855.94;5047647;28;20044;-89
2022/06/27 03:11:32;;;;;;;5.32;3.25;;;;;;;19.84;81.95;99867.66;5050602;28;20041;-89
2022/06/27 03:13:57;;;;;;;10.32;3.28;;;;;;;19.65;83.01;99866.81;5053189;28;20074;-88
2022/06/27 03:16:23;;;;;;;5.28;3.22;;;;;;;19.66;81.97;99844.44;5053198;28;20029;-90
2022/06/27 03:18:50;;;;;;;4.68;2.90;;;;;;;19.80;82.30;99871.44;5052150;28;20043;-91
2022/06/27 03:21:17;;;;;;;6.22;3.33;;;;;;;19.73;82.22;99845.88;5050109;28;20044;-89
2022/06/27 03:23:46;;;;;;;5.60;4.45;;;;;;;19.85;82.58;99877.41;5033599;28;20063;-89
2022/06/27 03:26:12;;;;;;;6.57;4.07;;;;;;;19.54;83.09;99832.56;5048118;28;20036;-90
2022/06/27 03:28:37;;;;;;;9.07;5.20;;;;;;;19.71;83.47;99850.47;5052069;28;20094;-93
2022/06/27 03:31:03;;;;;;;4.85;3.50;;;;;;;19.74;84.31;99854.78;5051494;28;20032;-91
2022/06/27 03:33:29;;;;;;;6.47;4.03;;;;;;;19.70;84.73;99854.06;5052862;28;20037;-92
2022/06/27 03:35:55;;;;;;;7.30;4.13;;;;;;;19.67;84.66;99859.56;5031944;28;20055;-89
2022/06/27 03:38:20;;;;;;;6.38;4.00;;;;;;;19.77;84.46;99865.34;5033525;28;20029;-91
2022/06/27 03:40:45;;;;;;;5.57;3.60;;;;;;;19.81;84.93;99880.31;5052128;28;20029;-91
2022/06/27 03:43:11;;;;;;;5.88;3.20;;;;;;;19.87;84.49;99871.97;5052817;28;20157;-86
2022/06/27 03:45:36;;;;;;;5.82;3.97;;;;;;;19.94;85.40;99894.84;5052558;28;20044;-87
2022/06/27 03:48:03;;;;;;;4.97;3.70;;;;;;;19.97;84.88;99877.72;5051931;28;20037;-91
2022/06/27 03:50:29;;;;;;;7.72;4.90;;;;;;;20.08;85.03;99862.00;5048420;28;20052;-87
2022/06/27 03:52:56;;;;;;;6.32;4.13;;;;;;;20.16;84.79;99875.84;5032540;28;20046;-90
2022/06/27 03:55:23;;;;;;;6.45;3.97;;;;;;;20.17;83.82;99861.53;5031517;28;20038;-87
2022/06/27 03:57:51;;;;;;;5.72;3.97;;;;;;;20.30;84.63;99882.31;5038350;28;20124;-86
2022/06/27 04:00:23;;;;;;;5.35;3.88;;;;;;;20.44;83.57;99873.53;5041833;28;20033;-89
2022/06/27 04:02:48;;;;;;;7.70;4.53;;;;;;;20.62;83.79;99888.63;5045700;28;20060;-88
2022/06/27 04:05:14;;;;;;;8.43;5.72;;;;;;;20.63;83.25;99854.66;5052669;28;20071;-87
2022/06/27 04:07:40;;;;;;;6.25;3.65;;;;;;;20.88;83.73;99889.94;5051965;28;20372;-89
2022/06/27 04:10:11;;;;;;;6.60;4.40;;;;;;;20.96;83.91;99886.84;5051742;28;20479;-88
2022/06/27 04:12:37;;;;;;;7.30;5.18;;;;;;;20.61;85.30;99860.09;5051088;28;20510;-88
2022/06/27 04:15:05;;;;;;;9.50;4.35;;;;;;;21.11;84.90;99903.88;5046524;28;20064;-88
2022/06/27 04:17:30;;;;;;;9.48;5.68;;;;;;;21.21;83.65;99883.66;5047578;28;20079;-84
2022/06/27 04:19:56;;;;;;;12.85;6.32;;;;;;;21.29;84.12;99885.91;5032732;28;20450;-86
2022/06/27 04:22:22;;;;;;;8.13;5.88;;;;;;;21.34;83.91;99869.53;5036180;28;20042;-88
2022/06/27 04:24:48;;;;;;;7.75;5.25;;;;;;;21.42;83.69;99865.44;5031718;28;20036;-88
2022/06/27 04:27:13;;;;;;;7.72;5.28;;;;;;;21.55;83.42;99872.81;5032466;28;20431;-88
2022/06/27 04:29:40;;;;;;;8.40;4.90;;;;;;;21.60;83.17;99854.66;5047428;28;20098;-86
2022/06/27 04:32:07;;;;;;;7.78;5.47;;;;;;;21.78;82.79;99860.75;5038506;28;20053;-88
2022/06/27 04:34:33;;;;;;;9.57;5.25;;;;;;;22.02;82.42;99895.19;5051107;28;20048;-87
2022/06/27 04:36:59;;;;;;;12.68;5.57;;;;;;;22.00;81.53;99863.03;5051227;28;20033;-89
2022/06/27 04:39:25;;;;;;;6.63;4.78;;;;;;;22.13;81.44;99882.81;5051273;28;20032;-90
2022/06/27 04:41:51;;;;;;;6.95;4.53;;;;;;;22.31;80.61;99858.53;5051090;28;20411;-89
2022/06/27 04:44:18;;;;;;;7.88;5.60;;;;;;;22.66;79.40;99883.22;5050736;28;20186;-88
2022/06/27 04:46:47;;;;;;;5.43;4.47;;;;;;;22.72;78.88;99884.66;5050246;28;20517;-89
2022/06/27 04:49:14;;;;;;;6.78;5.25;;;;;;;22.98;78.01;99887.53;5036592;28;20531;-89
2022/06/27 04:51:41;;;;;;;6.10;4.32;;;;;;;23.19;78.50;99893.41;5051753;28;20499;-88
2022/06/27 04:54:08;;;;;;;8.05;4.75;;;;;;;22.96;78.40;99892.16;5050541;28;20041;-87
2022/06/27 04:56:35;;;;;;;6.55;3.95;;;;;;;22.75;80.71;99897.91;5050337;28;20033;-87
2022/06/27 04:59:00;;;;;;;6.13;4.10;;;;;;;22.49;78.89;99883.38;5052295;28;20025;-87
2022/06/27 05:01:26;;;;;;;7.75;3.67;;;;;;;22.71;74.15;99878.44;5051316;28;20039;-83
2022/06/27 05:03:51;;;;;;;4.72;3.10;;;;;;;22.78;75.09;99886.97;5042586;28;20031;-85
2022/06/27 05:06:18;;;;;;;7.00;4.32;;;;;;;23.25;76.26;99909.16;5050468;28;20124;-85
2022/06/27 05:08:44;;;;;;;6.45;4.25;;;;;;;23.06;75.59;99904.03;5050872;28;20119;-83
2022/06/27 05:11:09;;;;;;;6.70;4.32;;;;;;;22.88;74.39;99904.25;5050549;28;20036;-87
2022/06/27 05:13:35;;;;;;;5.22;3.58;;;;;;;23.26;74.83;99899.25;5050791;28;20036;-87
2022/06/27 05:16:01;;;;;;;5.45;3.70;;;;;;;23.10;74.78;99911.00;5050886;28;20033;-86
2022/06/27 05:18:26;;;;;;;7.85;5.65;;;;;;;22.78;75.84;99870.81;5065792;28;20128;-86
2022/06/27 05:20:52;;;;;;;6.97;4.85;;;;;;;23.17;73.70;99893.50;5050454;28;20490;-89
2022/06/27 05:23:17;;;;;;;7.53;5.20;;;;;;;22.85;74.13;99865.94;5049218;28;20046;-87
2022/06/27 05:25:43;;;;;;;8.52;5.03;;;;;;;23.44;73.54;99905.28;5050749;28;20040;-86
2022/06/27 05:28:09;;;;;;;7.88;4.85;;;;;;;23.66;70.89;99867.03;5050451;28;20056;-88
2022/06/27 05:30:34;;;;;;;7.68;4.82;;;;;;;24.17;70.16;99879.78;5050952;28;20063;-88
2022/06/27 05:33:00;;;;;;;6.13;3.92;;;;;;;23.87;70.14;99908.72;5050662;28;20029;-88
2022/06/27 05:35:26;;;;;;;6.38;4.30;;;;;;;23.87;70.04;99889.84;5050296;28;20025;-88
2022/06/27 05:37:53;;;;;;;8.13;4.97;;;;;;;23.66;71.53;99877.78;5050822;28;20091;-86
2022/06/27 05:40:21;;;;;;;6.75;4.25;;;;;;;24.29;69.96;99895.97;5042883;28;20529;-88
2022/06/27 05:42:48;;;;;;;7.22;4.95;;;;;;;24.25;69.81;99899.88;5050198;28;20047;-90
2022/06/27 05:45:15;;;;;;;7.90;4.35;;;;;;;24.35;69.89;99875.81;5050130;28;20037;-89
2022/06/27 05:47:42;;;;;;;6.30;4.57;;;;;;;24.55;69.68;99884.34;5049845;28;20422;-91
2022/06/27 05:50:08;;;;;;;8.05;4.65;;;;;;;24.92;66.76;99895.25;5050183;28;20112;-91
2022/06/27 05:52:35;;;;;;;7.07;3.90;;;;;;;25.31;65.51;99891.53;5039495;28;20071;-88
2022/06/27 05:55:02;;;;;;;7.95;5.05;;;;;;;25.00;66.16;99855.94;5046686;28;20036;-89
2022/06/27 05:57:28;;;;;;;9.30;4.10;;;;;;;25.30;64.15;99864.63;5041503;28;20030;-86
2022/06/27 05:59:54;;;;;;;9.85;5.15;;;;;;;25.35;65.28;99905.69;5030687;28;20037;-89
2022/06/27 06:02:21;;;;;;;5.93;3.75;;;;;;;24.38;69.39;99880.16;5031673;28;20038;-87
2022/06/27 06:04:47;;;;;;;6.50;4.25;;;;;;;24.45;68.58;99871.53;5030842;28;20029;-87
2022/06/27 06:07:14;;;;;;;7.00;4.50;;;;;;;25.57;66.68;99909.50;5030442;28;20479;-87
2022/06/27 06:09:41;;;;;;;6.68;4.10;;;;;;;26.02;64.81;99883.56;5030314;28;20037;-87
2022/06/27 06:12:09;;;;;;;6.40;4.85;;;;;;;26.01;63.22;99898.06;5030702;28;20029;-89
2022/06/27 06:14:35;;;;;;;5.22;3.55;;;;;;;26.48;61.30;99898.06;5030523;28;20412;-87
2022/06/27 06:17:01;;;;;;;5.25;3.97;;;;;;;27.07;58.76;99888.91;5032516;28;20034;-85
2022/06/27 06:19:27;;;;;;;7.40;5.30;;;;;;;26.04;61.66;99880.75;5030673;28;20032;-89
2022/06/27 06:21:53;;;;;;;11.52;3.88;;;;;;;25.70;63.69;99894.97;5034910;28;20029;-89
2022/06/27 06:24:19;;;;;;;4.60;3.42;;;;;;;25.57;62.73;99891.44;5034120;28;20140;-91
2022/06/27 06:26:45;;;;;;;5.53;3.65;;;;;;;25.46;64.83;99854.44;5032974;28;20052;-89
2022/06/27 06:29:15;;;;;;;7.45;3.58;;;;;;;25.48;64.01;99857.03;5034329;28;20034;-89
2022/06/27 06:31:43;;;;;;;6.40;4.32;;;;;;;25.73;63.88;99883.91;5034109;28;20029;-89
2022/06/27 06:34:09;;;;;;;7.60;4.60;;;;;;;25.77;61.68;99865.63;5034284;28;20523;-89
2022/06/27 06:36:37;;;;;;;6.13;3.72;;;;;;;26.55;59.23;99904.69;5034311;28;20044;-89
2022/06/27 06:39:03;;;;;;;5.72;3.75;;;;;;;27.26;59.03;99895.53;5034220;28;20029;-89
2022/06/27 06:41:29;;;;;;;6.97;3.05;;;;;;;26.90;57.82;99887.53;5034549;28;20499;-89
2022/06/27 06:43:54;;;;;;;9.18;4.93;;;;;;;27.43;57.56;99905.00;5034107;28;20029;-89
2022/06/27 06:46:20;;;;;;;5.13;3.35;;;;;;;27.67;56.53;99866.91;5032891;28;20518;-89
2022/06/27 06:48:46;;;;;;;6.03;3.17;;;;;;;27.65;57.65;99886.00;5034207;28;20056;-89
2022/06/27 06:51:15;;;;;;;7.20;3.78;;;;;;;27.58;55.39;99878.50;5033960;28;20053;-89
2022/06/27 06:53:41;;;;;;;6.13;2.72;;;;;;;27.36;55.29;99891.09;5033511;28;20507;-89
2022/06/27 06:56:07;;;;;;;3.72;2.30;;;;;;;26.91;54.11;99874.88;5034055;28;20029;-87
2022/06/27 06:58:34;;;;;;;4.25;2.05;;;;;;;26.91;54.84;99874.88;5033726;28;20047;-88
2022/06/27 07:01:01;;;;;;;3.67;2.42;;;;;;;27.69;55.36;99903.69;5033606;28;20498;-89
2022/06/27 07:03:28;;;;;;;6.68;2.97;;;;;;;27.57;53.82;99899.28;5033709;28;20136;-89
2022/06/27 07:05:54;;;;;;;3.08;1.95;;;;;;;27.67;52.15;99904.81;5036538;28;20033;-88
2022/06/27 07:08:21;;;;;;;2.63;1.75;;;;;;;28.43;52.35;99885.75;5053670;28;20025;-89
2022/06/27 07:10:46;;;;;;;3.17;1.75;;;;;;;28.53;51.57;99873.13;5052529;28;20033;-90
2022/06/27 07:13:12;;;;;;;3.05;2.20;;;;;;;28.32;50.52;99859.56;5053338;28;20053;-88
2022/06/27 07:15:38;;;;;;;2.90;2.17;;;;;;;28.37;48.99;99867.31;5053291;28;20074;-90
2022/06/27 07:18:04;;;;;;;2.60;1.70;;;;;;;28.07;50.01;99882.53;5053724;28;20112;-89
2022/06/27 07:20:32;;;;;;;2.58;1.75;;;;;;;27.82;49.81;99900.84;5050985;28;20061;-88
2022/06/27 07:22:58;;;;;;;2.72;1.60;;;;;;;28.02;51.59;99910.03;5053419;28;20029;-89
2022/06/27 07:25:25;;;;;;;5.25;2.28;;;;;;;28.41;49.48;99898.59;5053337;28;20021;-89
2022/06/27 07:27:51;;;;;;;2.90;1.60;;;;;;;28.40;48.50;99903.16;5053171;28;20064;-89
2022/06/27 07:30:19;;;;;;;1.60;1.33;;;;;;;28.92;46.45;99892.31;5053113;28;20048;-89
2022/06/27 07:32:45;;;;;;;2.38;1.27;;;;;;;29.42;47.29;99899.66;5052546;28;20029;-88
2022/06/27 07:35:13;;;;;;;2.55;1.63;;;;;;;29.23;46.33;99913.19;5053045;28;20035;-88
2022/06/27 07:37:43;;;;;;;3.08;1.88;;;;;;;29.34;45.32;99887.78;5051206;28;20434;-89
2022/06/27 07:40:10;;;;;;;1.90;1.42;;;;;;;29.50;45.36;99908.97;5053089;28;20106;-89
2022/06/27 07:42:35;;;;;;;3.17;1.90;;;;;;;29.57;45.65;99907.44;5052761;28;20040;-89
2022/06/27 07:45:01;;;;;;;2.58;1.73;;;;;;;30.02;43.24;99896.03;5052714;28;20029;-88
2022/06/27 07:47:27;;;;;;;4.07;1.80;;;;;;;30.40;43.98;99905.19;5051732;28;20032;-88
2022/06/27 07:49:52;;;;;;;2.85;1.75;;;;;;;29.77;44.01;99887.41;5052752;28;20021;-90
2022/06/27 07:52:18;;;;;;;2.33;1.73;;;;;;;29.42;46.76;99882.50;5052531;28;20021;-89
2022/06/27 07:54:43;;;;;;;5.47;2.03;;;;;;;29.88;44.79;99893.75;5052478;28;20566;-89
2022/06/27 07:57:10;;;;;;;3.58;1.75;;;;;;;30.00;43.04;99881.72;5052972;28;20033;-89
2022/06/27 07:59:36;;;;;;;4.28;2.72;;;;;;;29.87;44.54;99884.72;5052589;28;20033;-89
2022/06/27 08:02:02;;;;;;;3.45;1.88;;;;;;;29.61;44.11;99876.22;5052328;28;20021;-89
2022/06/27 08:04:28;;;;;;;2.78;1.80;;;;;;;29.48;48.68;99898.25;5052451;28;20021;-88
2022/06/27 08:06:54;;;;;;;2.67;1.73;;;;;;;29.88;43.48;99866.56;5052697;28;20067;-89
2022/06/27 08:09:21;;;;;;;2.80;2.03;;;;;;;29.70;44.79;99872.66;5052494;28;20034;-90
2022/06/27 08:11:46;;;;;;;2.22;1.40;;;;;;;30.19;45.13;99902.59;5051222;28;20463;-90
2022/06/27 08:14:16;;;;;;;3.88;1.98;;;;;;;30.33;44.34;99879.53;5052131;28;20107;-89
2022/06/27 08:16:42;;;;;;;2.97;1.88;;;;;;;30.59;44.20;99874.34;5052182;28;20029;-90
2022/06/27 08:19:11;;;;;;;3.95;2.13;;;;;;;30.60;42.02;99883.34;5052394;28;20091;-89
2022/06/27 08:21:37;;;;;;;3.15;2.05;;;;;;;30.97;42.63;99858.91;5052198;28;20040;-89
2022/06/27 08:24:07;;;;;;;5.68;2.78;;;;;;;31.44;44.15;99892.50;5052240;28;20025;-89
2022/06/27 08:26:34;;;;;;;3.08;1.85;;;;;;;31.83;37.99;99865.81;5050648;28;20410;-88
2022/06/27 08:29:00;;;;;;;3.80;1.65;;;;;;;31.97;40.04;99888.09;5051834;28;20032;-89
2022/06/27 08:31:27;;;;;;;1.70;1.30;;;;;;;31.21;41.30;99880.13;5051568;28;20033;-88
2022/06/27 08:34:03;;;;;;;2.53;1.90;;;;;;;31.81;39.07;99888.78;5051662;28;20029;-88
2022/06/27 08:36:31;;;;;;;2.95;1.80;;;;;;;32.25;37.63;99873.34;5051869;28;20671;-87
2022/06/27 08:38:58;;;;;;;1.98;1.52;;;;;;;32.46;37.14;99866.69;5050316;28;20056;-87
2022/06/27 08:41:25;;;;;;;3.53;1.98;;;;;;;32.85;36.39;99882.63;5051778;28;20411;-87
2022/06/27 08:43:58;;;;;;;2.42;1.30;;;;;;;32.89;38.58;99859.44;5050788;28;20120;-87
2022/06/27 08:46:24;;;;;;;10.50;2.10;;;;;;;33.23;34.11;99858.59;5051114;28;20112;-87
2022/06/27 08:48:50;;;;;;;2.30;1.77;;;;;;;32.82;35.21;99872.88;5051728;28;20033;-87
2022/06/27 08:51:16;;;;;;;3.38;2.00;;;;;;;32.64;36.14;99870.25;5051172;28;20036;-89
2022/06/27 08:53:43;;;;;;;2.97;1.70;;;;;;;32.47;36.99;99863.78;5051555;28;20060;-89
2022/06/27 08:56:10;;;;;;;1.65;1.27;;;;;;;32.22;36.96;99851.81;5050332;28;20466;-88
2022/06/27 08:58:36;;;;;;;2.63;1.88;;;;;;;32.60;36.00;99877.00;5050879;28;20037;-89
2022/06/27 09:01:03;;;;;;;4.18;2.95;;;;;;;32.64;37.50;99872.06;5051248;28;20107;-87
2022/06/27 09:03:30;;;;;;;2.25;1.88;;;;;;;32.80;34.59;99869.47;5050241;28;20499;-86
2022/06/27 09:05:57;;;;;;;2.58;1.60;;;;;;;32.88;34.18;99854.13;5051324;28;20419;-86
2022/06/27 09:08:23;;;;;;;2.88;1.67;;;;;;;33.11;35.04;99868.91;5050850;28;20182;-90
2022/06/27 09:10:49;;;;;;;2.25;1.48;;;;;;;33.65;33.30;99865.84;5051173;28;20104;-89
2022/06/27 09:13:17;;;;;;;3.75;1.40;;;;;;;32.98;36.90;99849.38;5050517;28;20760;-84
2022/06/27 09:15:57;;;;;;;4.10;1.40;;;;;;;32.38;32.79;99870.22;5051439;28;20033;-85
2022/06/27 09:18:26;;;;;;;1.35;1.05;;;;;;;32.58;31.89;99869.97;5050815;28;20559;-89
2022/06/27 09:20:57;;;;;;;2.35;0.82;;;;;;;32.91;33.05;99867.47;5050207;28;20531;-88
2022/06/27 09:23:49;;;;;;;1.75;0.95;;;;;;;33.47;32.46;99859.66;5066312;28;20029;-87
2022/06/27 09:26:44;;;;;;;2.45;1.55;;;;;;;33.03;34.27;99852.50;5049510;28;20123;-86
2022/06/27 09:29:12;;;;;;;2.17;1.13;;;;;;;33.69;32.59;99853.56;5041462;28;20045;-86
2022/06/27 09:31:46;;;;;;;2.08;1.25;;;;;;;33.90;33.33;99849.47;5050948;28;20025;-86
2022/06/27 09:34:19;;;;;;;2.80;1.60;;;;;;;33.64;32.96;99822.25;5050195;28;20094;-88
2022/06/27 09:36:57;;;;;;;6.78;1.35;;;;;;;33.93;34.55;99842.81;5049955;28;20036;-88
2022/06/27 09:39:36;;;;;;;2.08;1.10;;;;;;;33.44;32.03;99851.78;5049159;28;20029;-87
2022/06/27 09:42:11;;;;;;;1.40;1.15;;;;;;;33.61;32.71;99845.31;5051103;28;20112;-89
2022/06/27 09:44:41;;;;;;;4.03;1.50;;;;;;;32.98;32.46;99839.34;5051156;28;20025;-88
2022/06/27 09:47:11;;;;;;;2.42;1.27;;;;;;;32.76;35.61;99828.97;5060588;28;20041;-88
2022/06/27 09:49:40;;;;;;;2.22;1.48;;;;;;;32.42;36.56;99844.28;5058527;28;20510;-86
2022/06/27 09:52:19;;;;;;;1.92;1.25;;;;;;;32.80;32.56;99814.84;5061950;28;20040;-85
2022/06/27 09:54:48;;;;;;;3.20;1.25;;;;;;;33.34;31.25;99824.63;5052254;28;20404;-85
2022/06/27 09:57:15;;;;;;;1.75;1.25;;;;;;;32.48;30.60;99840.91;5059124;28;20116;-87
2022/06/27 09:59:42;;;;;;;2.17;1.73;;;;;;;32.71;31.84;99817.72;5035875;28;20116;-87
2022/06/27 10:02:08;;;;;;;2.28;1.25;;;;;;;32.91;33.08;99834.69;5035145;28;20507;-87
2022/06/27 10:04:35;;;;;;;2.72;1.92;;;;;;;32.68;35.37;99837.16;5035213;28;20026;-87
2022/06/27 10:07:03;;;;;;;2.22;1.73;;;;;;;33.06;35.47;99833.03;5035094;28;20035;-86
2022/06/27 10:09:32;;;;;;;2.60;1.80;;;;;;;32.71;33.09;99826.75;5034715;28;20048;-87
2022/06/27 10:12:22;;;;;;;2.20;1.80;;;;;;;33.35;32.68;99837.25;5034874;28;20036;-86
2022/06/27 10:15:06;;;;;;;1.95;1.33;;;;;;;33.79;34.72;99831.53;5034642;28;20037;-86
2022/06/27 10:17:35;;;;;;;2.15;1.52;;;;;;;33.33;33.59;99814.69;5034509;28;20037;-86
2022/06/27 10:20:12;;;;;;;2.33;1.48;;;;;;;33.55;31.72;99833.19;5034850;28;20492;-85
2022/06/27 10:22:39;;;;;;;4.63;2.38;;;;;;;33.53;32.73;99823.44;5034795;28;20037;-86
2022/06/27 10:25:26;;;;;;;3.08;2.45;;;;;;;33.91;31.43;99821.13;5034693;28;20026;-86
2022/06/27 10:28:13;;;;;;;3.60;2.28;;;;;;;34.07;31.89;99814.75;5034293;28;20068;-88
2022/06/27 10:30:46;;;;;;;2.35;1.33;;;;;;;33.78;30.87;99818.03;5034317;28;20048;-87
2022/06/27 10:33:18;;;;;;;4.13;1.40;;;;;;;33.71;30.79;99810.50;5034412;28;20030;-86
2022/06/27 10:38:39;;;;;;;5.00;2.10;;;;;;;33.70;31.14;99811.47;5054047;28;20556;-88
2022/06/27 10:41:09;;;;;;;2.35;1.45;;;;;;;33.82;32.40;99813.94;5054038;28;20025;-87
2022/06/27 10:43:48;;;;;;;1.83;1.17;;;;;;;33.63;31.76;99780.41;5053040;28;20548;-88
2022/06/27 10:46:17;;;;;;;2.60;1.35;;;;;;;32.72;35.00;99812.09;5054061;28;20482;-87
2022/06/27 10:48:47;;;;;;;1.67;1.25;;;;;;;33.19;32.82;99805.28;5053379;28;20037;-87
2022/06/27 10:51:18;;;;;;;2.45;1.40;;;;;;;33.67;33.88;99805.50;5053830;28;20040;-87
2022/06/27 10:53:44;;;;;;;2.33;1.33;;;;;;;33.45;34.31;99777.81;5053856;28;20051;-89
2022/06/27 10:56:28;;;;;;;2.53;1.45;;;;;;;33.32;35.88;99800.19;5053445;28;20037;-88
2022/06/27 10:58:54;;;;;;;1.85;1.48;;;;;;;33.51;31.13;99759.88;5053677;28;20036;-87
2022/06/27 11:01:21;;;;;;;2.60;1.92;;;;;;;33.47;31.59;99802.25;5054341;28;20025;-85
2022/06/27 11:03:47;;;;;;;4.90;1.55;;;;;;;33.51;32.17;99773.56;5053480;28;20419;-85
2022/06/27 11:06:14;;;;;;;2.63;1.50;;;;;;;34.19;33.72;99786.00;5053255;28;20029;-88
2022/06/27 11:08:41;;;;;;;2.72;2.15;;;;;;;33.95;31.28;99775.94;5033770;28;20048;-88
2022/06/27 11:11:07;;;;;;;1.80;1.38;;;;;;;33.42;32.30;99785.50;5033722;28;20037;-89
2022/06/27 11:13:37;;;;;;;7.60;3.63;;;;;;;33.30;31.52;99768.56;5048275;28;20040;-89
2022/06/27 11:16:04;;;;;;;2.85;1.83;;;;;;;33.53;32.62;99782.44;5053132;28;20029;-89
2022/06/27 11:18:50;;;;;;;2.38;1.33;;;;;;;33.53;36.41;99758.66;5052845;28;20087;-87
2022/06/27 11:21:24;;;;;;;2.75;1.75;;;;;;;33.99;34.69;99760.06;5052294;28;20163;-88
2022/06/27 11:23:58;;;;;;;4.18;2.20;;;;;;;34.48;30.93;99773.66;5045410;28;20044;-88
2022/06/27 11:26:32;;;;;;;3.10;1.35;;;;;;;34.46;30.24;99778.44;5053323;28;20047;-89
2022/06/27 11:32:11;;;;;;;2.70;1.60;;;;;;;34.64;31.64;99764.50;5053266;28;20043;-88
2022/06/27 11:34:39;;;;;;;2.45;1.70;;;;;;;34.77;29.88;99753.88;5051906;28;20422;-88
2022/06/27 11:37:12;;;;;;;2.08;1.42;;;;;;;34.64;30.72;99747.25;5052973;28;20036;-88
2022/06/27 11:39:38;;;;;;;1.80;1.30;;;;;;;34.46;35.26;99763.91;5052791;28;20037;-88
2022/06/27 11:42:12;;;;;;;2.42;1.67;;;;;;;34.09;31.31;99744.28;5053000;28;20086;-87